KALS

San Luis Valley Regional / Bergman Field Airport

Alamosa, Colorado, USA
METAR KALS 251452Z AUTO 00000KT 10SM CLR 13/02 A3025 RMK AO2 SLP164 T01330017 53015
Observed Flight Rules
Sep-25 @ 14:52 UTC (50 minutes ago) Visual Flight Rules
Visibility Clouds
10 miles
  • Clear skies
Temperatures Readings
Current 13°C / 55°F
Dewpoint 2°C / 36°F
Humidity 47%
Altimeter 30.25" Hg
Pressure 1016.4 hPa
Elevation 2299
METAR KALS 251452Z AUTO 00000KT 10SM CLR 13/02 A3025 RMK AO2 SLP164 T01330017 53015
Observed Flight Rules
Sep-25 @ 14:52 UTC
(50 minutes ago)
VFR
Clouds
  • Clear skies
Temperature Dewpoint
13°C / 55°F 2°C / 36°F
Humidity Altimeter Pressure
47% 30.25" Hg 1016.4 hPa